Bonita Beach, Florida
Current Conditions -  °F | °C
As of 12:53 AM on Saturday 20 Dec 2014 (Local Time) from KRSW Reporting Station
Clear Clear  
Wind Chill: 57°   Ceiling: Unl
Heat Index: 57°   Visibility: 10mi
Dew Point: 52°   Wind: 0mph
Humidity: 83%   Direction: NA
Pressure: 30.07"   Gusts: NA
Location:  26.3649°N, 81.8304°W
Report Text: KRSW 200553Z 00000KT 10SM CLR 14/11 A3007 RMK AO2 SLP180 T01390111 10183 20133 58003
Loading
Personal Weather Stations






























Interactive Weather Map New forecast layout! Learn more

10-Day Weather Forecast

Advertisements
Track Severe Weather on mobile